sensor_id;sensor_type;location;lat;lon;timestamp;temperature;humidity
38359;DHT22;42072;48.044;14.416;2023-07-20T00:00:15;20.70;99.90
38359;DHT22;42072;48.044;14.416;2023-07-20T00:02:42;20.70;99.90
38359;DHT22;42072;48.044;14.416;2023-07-20T00:05:10;20.70;99.90
38359;DHT22;42072;48.044;14.416;2023-07-20T00:07:37;20.50;99.90
38359;DHT22;42072;48.044;14.416;2023-07-20T00:10:04;20.40;99.90
38359;DHT22;42072;48.044;14.416;2023-07-20T00:12:31;20.20;99.90
38359;DHT22;42072;48.044;14.416;2023-07-20T00:14:58;20.10;99.90
38359;DHT22;42072;48.044;14.416;2023-07-20T00:17:26;20.00;99.90
38359;DHT22;42072;48.044;14.416;2023-07-20T00:19:53;19.90;99.90
38359;DHT22;42072;48.044;14.416;2023-07-20T00:22:20;19.90;99.90
38359;DHT22;42072;48.044;14.416;2023-07-20T00:24:48;19.80;99.90
38359;DHT22;42072;48.044;14.416;2023-07-20T00:27:16;19.80;99.90
38359;DHT22;42072;48.044;14.416;2023-07-20T00:29:43;19.70;99.90
38359;DHT22;42072;48.044;14.416;2023-07-20T00:32:10;19.70;99.90
38359;DHT22;42072;48.044;14.416;2023-07-20T00:34:37;19.80;99.90
38359;DHT22;42072;48.044;14.416;2023-07-20T00:37:05;19.90;99.90
38359;DHT22;42072;48.044;14.416;2023-07-20T00:39:32;20.10;99.90
38359;DHT22;42072;48.044;14.416;2023-07-20T00:41:59;20.10;99.90
38359;DHT22;42072;48.044;14.416;2023-07-20T00:44:27;20.10;99.90
38359;DHT22;42072;48.044;14.416;2023-07-20T00:46:54;20.10;99.90
38359;DHT22;42072;48.044;14.416;2023-07-20T00:49:22;20.10;99.90
38359;DHT22;42072;48.044;14.416;2023-07-20T00:51:51;20.10;99.90
38359;DHT22;42072;48.044;14.416;2023-07-20T00:54:18;20.10;99.90
38359;DHT22;42072;48.044;14.416;2023-07-20T00:56:46;20.00;99.90
38359;DHT22;42072;48.044;14.416;2023-07-20T00:59:13;20.00;1.00
38359;DHT22;42072;48.044;14.416;2023-07-20T01:01:41;19.90;1.00
38359;DHT22;42072;48.044;14.416;2023-07-20T01:04:08;19.80;1.00
38359;DHT22;42072;48.044;14.416;2023-07-20T01:09:13;19.70;1.00
38359;DHT22;42072;48.044;14.416;2023-07-20T01:14:34;19.70;1.00
38359;DHT22;42072;48.044;14.416;2023-07-20T01:17:02;19.70;1.00
38359;DHT22;42072;48.044;14.416;2023-07-20T01:19:29;19.70;1.00
38359;DHT22;42072;48.044;14.416;2023-07-20T01:21:59;19.60;1.00
38359;DHT22;42072;48.044;14.416;2023-07-20T01:27:21;19.40;1.00
38359;DHT22;42072;48.044;14.416;2023-07-20T01:32:29;19.30;1.00
38359;DHT22;42072;48.044;14.416;2023-07-20T01:34:59;19.30;1.00
38359;DHT22;42072;48.044;14.416;2023-07-20T01:37:27;19.30;1.00
38359;DHT22;42072;48.044;14.416;2023-07-20T01:39:56;19.30;1.00
38359;DHT22;42072;48.044;14.416;2023-07-20T01:42:24;19.40;1.00
38359;DHT22;42072;48.044;14.416;2023-07-20T01:44:52;19.40;1.00
38359;DHT22;42072;48.044;14.416;2023-07-20T01:47:20;19.40;1.00
38359;DHT22;42072;48.044;14.416;2023-07-20T01:49:47;19.30;1.00
38359;DHT22;42072;48.044;14.416;2023-07-20T01:52:14;19.30;1.00
38359;DHT22;42072;48.044;14.416;2023-07-20T01:54:42;19.40;1.00
38359;DHT22;42072;48.044;14.416;2023-07-20T01:57:09;19.40;1.00
38359;DHT22;42072;48.044;14.416;2023-07-20T01:59:36;19.50;1.00
38359;DHT22;42072;48.044;14.416;2023-07-20T02:02:04;19.50;1.00
38359;DHT22;42072;48.044;14.416;2023-07-20T02:04:31;19.60;1.00
38359;DHT22;42072;48.044;14.416;2023-07-20T02:06:58;19.60;1.00
38359;DHT22;42072;48.044;14.416;2023-07-20T02:09:25;19.60;1.00
38359;DHT22;42072;48.044;14.416;2023-07-20T02:11:52;19.60;1.00
38359;DHT22;42072;48.044;14.416;2023-07-20T02:14:19;19.60;1.00
38359;DHT22;42072;48.044;14.416;2023-07-20T02:16:47;19.60;1.00
38359;DHT22;42072;48.044;14.416;2023-07-20T02:19:14;19.70;99.90
38359;DHT22;42072;48.044;14.416;2023-07-20T02:21:41;19.70;99.90
38359;DHT22;42072;48.044;14.416;2023-07-20T02:24:09;19.80;99.90
38359;DHT22;42072;48.044;14.416;2023-07-20T02:26:36;19.90;99.90
38359;DHT22;42072;48.044;14.416;2023-07-20T02:29:03;19.80;99.90
38359;DHT22;42072;48.044;14.416;2023-07-20T02:31:31;19.70;1.00
38359;DHT22;42072;48.044;14.416;2023-07-20T02:33:59;19.50;1.00
38359;DHT22;42072;48.044;14.416;2023-07-20T02:36:26;19.50;1.00
38359;DHT22;42072;48.044;14.416;2023-07-20T02:38:53;19.40;1.00
38359;DHT22;42072;48.044;14.416;2023-07-20T02:41:20;19.30;1.00
38359;DHT22;42072;48.044;14.416;2023-07-20T02:43:47;19.20;1.00
38359;DHT22;42072;48.044;14.416;2023-07-20T02:46:14;19.20;1.00
38359;DHT22;42072;48.044;14.416;2023-07-20T02:48:42;19.20;1.00
38359;DHT22;42072;48.044;14.416;2023-07-20T02:51:09;19.20;1.00
38359;DHT22;42072;48.044;14.416;2023-07-20T02:53:37;19.10;1.00
38359;DHT22;42072;48.044;14.416;2023-07-20T02:56:04;19.00;1.00
38359;DHT22;42072;48.044;14.416;2023-07-20T02:58:34;19.00;1.00
38359;DHT22;42072;48.044;14.416;2023-07-20T03:01:03;18.90;1.00
38359;DHT22;42072;48.044;14.416;2023-07-20T03:03:31;18.80;1.00
38359;DHT22;42072;48.044;14.416;2023-07-20T03:05:59;18.80;1.00
38359;DHT22;42072;48.044;14.416;2023-07-20T03:08:26;18.80;1.00
38359;DHT22;42072;48.044;14.416;2023-07-20T03:10:54;18.80;1.00
38359;DHT22;42072;48.044;14.416;2023-07-20T03:13:21;18.80;1.00
38359;DHT22;42072;48.044;14.416;2023-07-20T03:15:48;19.00;1.00
38359;DHT22;42072;48.044;14.416;2023-07-20T03:18:15;19.10;1.00
38359;DHT22;42072;48.044;14.416;2023-07-20T03:20:42;19.20;1.00
38359;DHT22;42072;48.044;14.416;2023-07-20T03:23:09;19.30;1.00
38359;DHT22;42072;48.044;14.416;2023-07-20T03:25:37;19.30;1.00
38359;DHT22;42072;48.044;14.416;2023-07-20T03:28:04;19.40;1.00
38359;DHT22;42072;48.044;14.416;2023-07-20T03:30:31;19.50;1.00
38359;DHT22;42072;48.044;14.416;2023-07-20T03:32:58;19.50;1.00
38359;DHT22;42072;48.044;14.416;2023-07-20T03:35:26;19.60;1.00
38359;DHT22;42072;48.044;14.416;2023-07-20T03:37:53;19.60;99.90
38359;DHT22;42072;48.044;14.416;2023-07-20T03:40:20;19.60;99.90
38359;DHT22;42072;48.044;14.416;2023-07-20T03:42:47;19.70;99.90
38359;DHT22;42072;48.044;14.416;2023-07-20T03:45:14;19.60;99.90
38359;DHT22;42072;48.044;14.416;2023-07-20T03:47:41;19.70;99.90
38359;DHT22;42072;48.044;14.416;2023-07-20T03:50:09;19.70;99.90
38359;DHT22;42072;48.044;14.416;2023-07-20T03:52:37;19.70;99.90
38359;DHT22;42072;48.044;14.416;2023-07-20T03:55:04;19.80;99.90
38359;DHT22;42072;48.044;14.416;2023-07-20T03:57:32;19.80;99.90
38359;DHT22;42072;48.044;14.416;2023-07-20T04:00:00;19.80;99.90
38359;DHT22;42072;48.044;14.416;2023-07-20T04:02:27;19.90;99.90
38359;DHT22;42072;48.044;14.416;2023-07-20T04:04:54;20.10;99.90
38359;DHT22;42072;48.044;14.416;2023-07-20T04:07:21;20.20;99.90
38359;DHT22;42072;48.044;14.416;2023-07-20T04:09:48;20.30;99.90
38359;DHT22;42072;48.044;14.416;2023-07-20T04:12:15;20.30;99.90
38359;DHT22;42072;48.044;14.416;2023-07-20T04:14:43;20.40;99.90
38359;DHT22;42072;48.044;14.416;2023-07-20T04:17:10;20.40;99.90
38359;DHT22;42072;48.044;14.416;2023-07-20T04:19:40;20.50;99.90
38359;DHT22;42072;48.044;14.416;2023-07-20T04:22:07;20.50;99.90
38359;DHT22;42072;48.044;14.416;2023-07-20T04:24:34;20.50;99.90
38359;DHT22;42072;48.044;14.416;2023-07-20T04:27:02;20.60;99.90
38359;DHT22;42072;48.044;14.416;2023-07-20T04:29:29;20.60;99.90
38359;DHT22;42072;48.044;14.416;2023-07-20T04:31:56;20.70;99.90
38359;DHT22;42072;48.044;14.416;2023-07-20T04:34:23;20.80;99.90
38359;DHT22;42072;48.044;14.416;2023-07-20T04:36:50;20.90;99.90
38359;DHT22;42072;48.044;14.416;2023-07-20T04:39:17;21.10;99.90
38359;DHT22;42072;48.044;14.416;2023-07-20T04:41:58;21.50;99.90
38359;DHT22;42072;48.044;14.416;2023-07-20T04:44:25;21.60;99.90
38359;DHT22;42072;48.044;14.416;2023-07-20T04:46:52;21.60;99.90
38359;DHT22;42072;48.044;14.416;2023-07-20T04:49:19;21.50;99.90
38359;DHT22;42072;48.044;14.416;2023-07-20T04:51:46;21.50;99.90
38359;DHT22;42072;48.044;14.416;2023-07-20T04:54:13;21.50;99.90
38359;DHT22;42072;48.044;14.416;2023-07-20T04:56:41;21.50;99.90
38359;DHT22;42072;48.044;14.416;2023-07-20T04:59:08;21.50;99.90
38359;DHT22;42072;48.044;14.416;2023-07-20T05:01:35;21.50;99.90
38359;DHT22;42072;48.044;14.416;2023-07-20T05:04:02;21.50;99.90
38359;DHT22;42072;48.044;14.416;2023-07-20T05:06:29;21.40;99.90
38359;DHT22;42072;48.044;14.416;2023-07-20T05:08:56;21.30;99.90
38359;DHT22;42072;48.044;14.416;2023-07-20T05:11:24;21.30;99.90
38359;DHT22;42072;48.044;14.416;2023-07-20T05:13:52;21.30;99.90
38359;DHT22;42072;48.044;14.416;2023-07-20T05:16:19;21.40;99.90
38359;DHT22;42072;48.044;14.416;2023-07-20T05:18:47;21.50;99.90
38359;DHT22;42072;48.044;14.416;2023-07-20T05:21:14;21.70;99.90
38359;DHT22;42072;48.044;14.416;2023-07-20T05:23:41;21.80;99.90
38359;DHT22;42072;48.044;14.416;2023-07-20T05:26:08;22.30;99.90
38359;DHT22;42072;48.044;14.416;2023-07-20T05:28:36;22.40;99.90
38359;DHT22;42072;48.044;14.416;2023-07-20T05:31:03;22.50;99.90
38359;DHT22;42072;48.044;14.416;2023-07-20T05:33:30;23.40;99.90
38359;DHT22;42072;48.044;14.416;2023-07-20T05:35:57;24.70;99.90
38359;DHT22;42072;48.044;14.416;2023-07-20T05:38:24;27.60;99.90
38359;DHT22;42072;48.044;14.416;2023-07-20T05:40:52;29.40;83.50
38359;DHT22;42072;48.044;14.416;2023-07-20T05:43:19;30.70;48.70
38359;DHT22;42072;48.044;14.416;2023-07-20T05:45:46;32.10;19.90
38359;DHT22;42072;48.044;14.416;2023-07-20T05:48:15;33.20;2.80
38359;DHT22;42072;48.044;14.416;2023-07-20T05:50:43;31.70;2.50
38359;DHT22;42072;48.044;14.416;2023-07-20T05:53:11;29.50;15.00
38359;DHT22;42072;48.044;14.416;2023-07-20T05:55:38;28.70;32.00
38359;DHT22;42072;48.044;14.416;2023-07-20T05:58:07;27.70;50.20
38359;DHT22;42072;48.044;14.416;2023-07-20T06:00:34;26.50;75.70
38359;DHT22;42072;48.044;14.416;2023-07-20T06:03:01;25.70;99.70
38359;DHT22;42072;48.044;14.416;2023-07-20T06:05:29;25.20;99.90
38359;DHT22;42072;48.044;14.416;2023-07-20T06:07:57;25.10;99.90
38359;DHT22;42072;48.044;14.416;2023-07-20T06:10:25;24.80;99.90
38359;DHT22;42072;48.044;14.416;2023-07-20T06:12:53;24.60;99.90
38359;DHT22;42072;48.044;14.416;2023-07-20T06:15:48;24.30;99.90
38359;DHT22;42072;48.044;14.416;2023-07-20T06:18:15;24.00;99.90
38359;DHT22;42072;48.044;14.416;2023-07-20T06:20:42;23.90;99.90
38359;DHT22;42072;48.044;14.416;2023-07-20T06:23:10;24.00;99.90
38359;DHT22;42072;48.044;14.416;2023-07-20T06:25:37;24.10;99.90
38359;DHT22;42072;48.044;14.416;2023-07-20T06:28:04;24.40;99.90
38359;DHT22;42072;48.044;14.416;2023-07-20T06:30:33;24.60;99.90
38359;DHT22;42072;48.044;14.416;2023-07-20T06:33:01;25.20;99.90
38359;DHT22;42072;48.044;14.416;2023-07-20T06:35:28;25.20;99.90
38359;DHT22;42072;48.044;14.416;2023-07-20T06:37:55;24.80;99.90
38359;DHT22;42072;48.044;14.416;2023-07-20T06:40:22;24.40;99.90
38359;DHT22;42072;48.044;14.416;2023-07-20T06:42:52;24.20;99.90
38359;DHT22;42072;48.044;14.416;2023-07-20T06:45:22;24.30;99.90
38359;DHT22;42072;48.044;14.416;2023-07-20T06:47:49;24.60;99.90
38359;DHT22;42072;48.044;14.416;2023-07-20T06:50:16;24.60;99.90
38359;DHT22;42072;48.044;14.416;2023-07-20T06:52:44;25.00;99.90
38359;DHT22;42072;48.044;14.416;2023-07-20T06:55:11;25.50;99.90
38359;DHT22;42072;48.044;14.416;2023-07-20T06:57:39;25.70;99.90
38359;DHT22;42072;48.044;14.416;2023-07-20T07:00:07;26.00;99.90
38359;DHT22;42072;48.044;14.416;2023-07-20T07:02:35;25.80;99.50
38359;DHT22;42072;48.044;14.416;2023-07-20T07:05:03;25.60;99.90
38359;DHT22;42072;48.044;14.416;2023-07-20T07:07:46;25.50;99.90
38359;DHT22;42072;48.044;14.416;2023-07-20T07:10:14;25.20;99.90
38359;DHT22;42072;48.044;14.416;2023-07-20T07:12:41;24.90;99.90
38359;DHT22;42072;48.044;14.416;2023-07-20T07:15:08;24.60;99.90
38359;DHT22;42072;48.044;14.416;2023-07-20T07:17:37;24.30;99.90
38359;DHT22;42072;48.044;14.416;2023-07-20T07:20:06;24.30;99.90
38359;DHT22;42072;48.044;14.416;2023-07-20T07:22:37;24.50;99.90
38359;DHT22;42072;48.044;14.416;2023-07-20T07:25:04;24.70;99.90
38359;DHT22;42072;48.044;14.416;2023-07-20T07:27:31;25.00;99.90
38359;DHT22;42072;48.044;14.416;2023-07-20T07:29:59;24.80;99.90
38359;DHT22;42072;48.044;14.416;2023-07-20T07:32:26;24.90;99.90
38359;DHT22;42072;48.044;14.416;2023-07-20T07:34:53;24.90;99.90
38359;DHT22;42072;48.044;14.416;2023-07-20T07:37:21;24.80;99.90
38359;DHT22;42072;48.044;14.416;2023-07-20T07:39:48;24.70;99.90
38359;DHT22;42072;48.044;14.416;2023-07-20T07:42:16;24.60;99.90
38359;DHT22;42072;48.044;14.416;2023-07-20T07:44:43;24.90;99.90
38359;DHT22;42072;48.044;14.416;2023-07-20T07:47:11;25.10;99.90
38359;DHT22;42072;48.044;14.416;2023-07-20T07:49:38;25.00;99.90
38359;DHT22;42072;48.044;14.416;2023-07-20T07:52:06;24.90;99.90
38359;DHT22;42072;48.044;14.416;2023-07-20T07:54:33;24.90;99.90
38359;DHT22;42072;48.044;14.416;2023-07-20T07:57:00;24.90;99.90
38359;DHT22;42072;48.044;14.416;2023-07-20T07:59:28;25.00;99.90
38359;DHT22;42072;48.044;14.416;2023-07-20T08:01:56;24.70;99.90
38359;DHT22;42072;48.044;14.416;2023-07-20T08:04:25;24.20;99.90
38359;DHT22;42072;48.044;14.416;2023-07-20T08:06:52;23.80;99.90
38359;DHT22;42072;48.044;14.416;2023-07-20T08:09:19;23.60;99.90
38359;DHT22;42072;48.044;14.416;2023-07-20T08:11:46;23.50;99.90
38359;DHT22;42072;48.044;14.416;2023-07-20T08:14:15;23.50;99.90
38359;DHT22;42072;48.044;14.416;2023-07-20T08:16:42;23.60;99.90
38359;DHT22;42072;48.044;14.416;2023-07-20T08:19:10;23.80;99.90
38359;DHT22;42072;48.044;14.416;2023-07-20T08:21:37;24.20;99.90
38359;DHT22;42072;48.044;14.416;2023-07-20T08:24:04;24.30;99.90
38359;DHT22;42072;48.044;14.416;2023-07-20T08:26:31;24.10;99.90
38359;DHT22;42072;48.044;14.416;2023-07-20T08:28:59;24.00;99.90
38359;DHT22;42072;48.044;14.416;2023-07-20T08:31:26;24.00;99.90
38359;DHT22;42072;48.044;14.416;2023-07-20T08:33:55;23.90;99.90
38359;DHT22;42072;48.044;14.416;2023-07-20T08:36:23;24.00;99.90
38359;DHT22;42072;48.044;14.416;2023-07-20T08:38:51;24.00;99.90
38359;DHT22;42072;48.044;14.416;2023-07-20T08:41:19;23.90;99.90
38359;DHT22;42072;48.044;14.416;2023-07-20T08:43:46;24.10;99.90
38359;DHT22;42072;48.044;14.416;2023-07-20T08:46:14;24.00;99.90
38359;DHT22;42072;48.044;14.416;2023-07-20T08:48:43;24.30;99.90
38359;DHT22;42072;48.044;14.416;2023-07-20T08:51:11;24.40;99.90
38359;DHT22;42072;48.044;14.416;2023-07-20T08:53:39;24.30;99.90
38359;DHT22;42072;48.044;14.416;2023-07-20T08:56:08;24.20;99.90
38359;DHT22;42072;48.044;14.416;2023-07-20T08:58:38;24.00;99.90
38359;DHT22;42072;48.044;14.416;2023-07-20T09:01:06;24.10;99.90
38359;DHT22;42072;48.044;14.416;2023-07-20T09:03:34;24.10;99.90
38359;DHT22;42072;48.044;14.416;2023-07-20T09:06:01;24.30;99.90
38359;DHT22;42072;48.044;14.416;2023-07-20T09:08:28;24.10;99.90
38359;DHT22;42072;48.044;14.416;2023-07-20T09:10:55;24.20;99.90
38359;DHT22;42072;48.044;14.416;2023-07-20T09:13:25;24.30;99.90
38359;DHT22;42072;48.044;14.416;2023-07-20T09:15:54;24.70;95.30
38359;DHT22;42072;48.044;14.416;2023-07-20T09:18:29;25.30;78.80
38359;DHT22;42072;48.044;14.416;2023-07-20T09:21:02;25.80;72.40
38359;DHT22;42072;48.044;14.416;2023-07-20T09:23:31;25.50;67.50
38359;DHT22;42072;48.044;14.416;2023-07-20T09:25:59;25.60;63.50
38359;DHT22;42072;48.044;14.416;2023-07-20T09:28:26;25.60;56.10
38359;DHT22;42072;48.044;14.416;2023-07-20T09:30:57;25.60;56.00
38359;DHT22;42072;48.044;14.416;2023-07-20T09:33:24;25.80;60.60
38359;DHT22;42072;48.044;14.416;2023-07-20T09:35:54;25.40;57.30
38359;DHT22;42072;48.044;14.416;2023-07-20T09:38:22;25.30;63.70
38359;DHT22;42072;48.044;14.416;2023-07-20T09:40:51;25.50;64.40
38359;DHT22;42072;48.044;14.416;2023-07-20T09:43:21;25.70;54.20
38359;DHT22;42072;48.044;14.416;2023-07-20T09:45:57;25.90;55.70
38359;DHT22;42072;48.044;14.416;2023-07-20T09:48:25;25.70;57.70
38359;DHT22;42072;48.044;14.416;2023-07-20T09:50:58;25.70;55.40
38359;DHT22;42072;48.044;14.416;2023-07-20T09:53:25;26.00;49.90
38359;DHT22;42072;48.044;14.416;2023-07-20T09:55:53;26.20;44.90
38359;DHT22;42072;48.044;14.416;2023-07-20T09:58:21;26.10;37.80
38359;DHT22;42072;48.044;14.416;2023-07-20T10:00:51;25.80;42.40
38359;DHT22;42072;48.044;14.416;2023-07-20T10:03:21;25.90;44.90
38359;DHT22;42072;48.044;14.416;2023-07-20T10:05:56;25.90;44.80
38359;DHT22;42072;48.044;14.416;2023-07-20T10:08:29;26.00;44.20
38359;DHT22;42072;48.044;14.416;2023-07-20T10:11:00;25.90;37.50
38359;DHT22;42072;48.044;14.416;2023-07-20T10:13:29;25.90;29.80
38359;DHT22;42072;48.044;14.416;2023-07-20T10:16:02;26.00;33.30
38359;DHT22;42072;48.044;14.416;2023-07-20T10:18:43;26.20;29.80
38359;DHT22;42072;48.044;14.416;2023-07-20T10:21:13;26.00;30.50
38359;DHT22;42072;48.044;14.416;2023-07-20T10:23:43;26.10;32.30
38359;DHT22;42072;48.044;14.416;2023-07-20T10:26:11;26.20;31.80
38359;DHT22;42072;48.044;14.416;2023-07-20T10:28:38;26.20;31.50
38359;DHT22;42072;48.044;14.416;2023-07-20T10:31:11;26.40;27.00
38359;DHT22;42072;48.044;14.416;2023-07-20T10:33:39;26.60;19.90
38359;DHT22;42072;48.044;14.416;2023-07-20T10:36:07;27.00;19.30
38359;DHT22;42072;48.044;14.416;2023-07-20T10:38:42;27.20;15.10
38359;DHT22;42072;48.044;14.416;2023-07-20T10:41:33;27.00;13.70
38359;DHT22;42072;48.044;14.416;2023-07-20T10:44:02;26.80;14.40
38359;DHT22;42072;48.044;14.416;2023-07-20T10:46:43;26.70;15.80
38359;DHT22;42072;48.044;14.416;2023-07-20T10:49:14;26.90;16.80
38359;DHT22;42072;48.044;14.416;2023-07-20T10:51:48;27.30;12.50
38359;DHT22;42072;48.044;14.416;2023-07-20T10:56:50;26.80;11.90
38359;DHT22;42072;48.044;14.416;2023-07-20T10:59:36;26.80;16.90
38359;DHT22;42072;48.044;14.416;2023-07-20T11:02:09;27.10;13.70
38359;DHT22;42072;48.044;14.416;2023-07-20T11:04:46;27.40;8.90
38359;DHT22;42072;48.044;14.416;2023-07-20T11:07:35;27.20;2.80
38359;DHT22;42072;48.044;14.416;2023-07-20T11:10:14;27.00;3.60
38359;DHT22;42072;48.044;14.416;2023-07-20T11:13:16;26.90;5.40
38359;DHT22;42072;48.044;14.416;2023-07-20T11:16:02;27.10;4.80
38359;DHT22;42072;48.044;14.416;2023-07-20T11:18:30;27.50;5.20
38359;DHT22;42072;48.044;14.416;2023-07-20T11:20:59;28.10;1.60
38359;DHT22;42072;48.044;14.416;2023-07-20T11:23:27;28.20;1.00
38359;DHT22;42072;48.044;14.416;2023-07-20T11:25:56;28.10;1.00
38359;DHT22;42072;48.044;14.416;2023-07-20T11:28:23;27.60;2.10
38359;DHT22;42072;48.044;14.416;2023-07-20T11:30:52;27.50;5.70
38359;DHT22;42072;48.044;14.416;2023-07-20T11:33:21;27.30;1.40
38359;DHT22;42072;48.044;14.416;2023-07-20T11:35:49;27.30;6.90
38359;DHT22;42072;48.044;14.416;2023-07-20T11:38:18;27.70;9.30
38359;DHT22;42072;48.044;14.416;2023-07-20T11:40:46;28.10;1.70
38359;DHT22;42072;48.044;14.416;2023-07-20T11:43:14;28.50;1.00
38359;DHT22;42072;48.044;14.416;2023-07-20T11:45:45;28.30;1.00
38359;DHT22;42072;48.044;14.416;2023-07-20T11:48:18;28.00;1.00
38359;DHT22;42072;48.044;14.416;2023-07-20T11:50:45;28.10;1.00
38359;DHT22;42072;48.044;14.416;2023-07-20T11:53:14;27.90;1.00
38359;DHT22;42072;48.044;14.416;2023-07-20T11:55:41;27.20;1.00
38359;DHT22;42072;48.044;14.416;2023-07-20T11:58:09;27.10;3.70
38359;DHT22;42072;48.044;14.416;2023-07-20T12:00:38;27.00;1.00
38359;DHT22;42072;48.044;14.416;2023-07-20T12:03:09;26.90;2.30
38359;DHT22;42072;48.044;14.416;2023-07-20T12:05:40;27.10;1.00
38359;DHT22;42072;48.044;14.416;2023-07-20T12:08:10;27.20;1.00
38359;DHT22;42072;48.044;14.416;2023-07-20T12:10:39;27.30;1.20
38359;DHT22;42072;48.044;14.416;2023-07-20T12:13:10;27.40;1.00
38359;DHT22;42072;48.044;14.416;2023-07-20T12:15:40;27.30;1.00
38359;DHT22;42072;48.044;14.416;2023-07-20T12:18:08;27.50;1.00
38359;DHT22;42072;48.044;14.416;2023-07-20T12:20:36;27.70;1.00
38359;DHT22;42072;48.044;14.416;2023-07-20T12:23:04;27.10;1.00
38359;DHT22;42072;48.044;14.416;2023-07-20T12:25:43;26.90;1.00
38359;DHT22;42072;48.044;14.416;2023-07-20T12:28:12;26.80;4.10
38359;DHT22;42072;48.044;14.416;2023-07-20T12:30:42;26.70;1.00
38359;DHT22;42072;48.044;14.416;2023-07-20T12:33:09;26.70;1.00
38359;DHT22;42072;48.044;14.416;2023-07-20T12:35:36;26.30;2.10
38359;DHT22;42072;48.044;14.416;2023-07-20T12:38:04;26.10;4.60
38359;DHT22;42072;48.044;14.416;2023-07-20T12:40:31;26.80;3.80
38359;DHT22;42072;48.044;14.416;2023-07-20T12:42:58;27.50;1.00
38359;DHT22;42072;48.044;14.416;2023-07-20T12:45:25;28.00;1.00
38359;DHT22;42072;48.044;14.416;2023-07-20T12:47:53;27.80;1.00
38359;DHT22;42072;48.044;14.416;2023-07-20T12:50:20;27.20;1.00
38359;DHT22;42072;48.044;14.416;2023-07-20T12:52:48;27.00;1.00
38359;DHT22;42072;48.044;14.416;2023-07-20T12:55:15;27.00;1.00
38359;DHT22;42072;48.044;14.416;2023-07-20T12:57:42;27.20;1.00
38359;DHT22;42072;48.044;14.416;2023-07-20T13:00:11;27.40;1.00
38359;DHT22;42072;48.044;14.416;2023-07-20T13:02:38;27.30;1.00
38359;DHT22;42072;48.044;14.416;2023-07-20T13:05:06;27.50;1.00
38359;DHT22;42072;48.044;14.416;2023-07-20T13:07:37;27.80;1.00
38359;DHT22;42072;48.044;14.416;2023-07-20T13:10:08;28.20;1.00
38359;DHT22;42072;48.044;14.416;2023-07-20T13:12:36;28.70;1.00
38359;DHT22;42072;48.044;14.416;2023-07-20T13:15:07;29.30;1.00
38359;DHT22;42072;48.044;14.416;2023-07-20T13:17:36;29.40;1.00
38359;DHT22;42072;48.044;14.416;2023-07-20T13:20:04;29.60;1.00
38359;DHT22;42072;48.044;14.416;2023-07-20T13:22:32;29.70;1.00
38359;DHT22;42072;48.044;14.416;2023-07-20T13:24:59;29.40;1.00
38359;DHT22;42072;48.044;14.416;2023-07-20T13:27:27;28.80;1.00
38359;DHT22;42072;48.044;14.416;2023-07-20T13:29:54;28.60;1.00
38359;DHT22;42072;48.044;14.416;2023-07-20T13:32:22;28.40;1.00
38359;DHT22;42072;48.044;14.416;2023-07-20T13:34:50;28.30;1.00
38359;DHT22;42072;48.044;14.416;2023-07-20T13:37:18;28.20;1.00
38359;DHT22;42072;48.044;14.416;2023-07-20T13:39:45;28.00;1.00
38359;DHT22;42072;48.044;14.416;2023-07-20T13:42:12;28.00;1.00
38359;DHT22;42072;48.044;14.416;2023-07-20T13:44:40;28.10;1.00
38359;DHT22;42072;48.044;14.416;2023-07-20T13:47:08;27.90;1.00
38359;DHT22;42072;48.044;14.416;2023-07-20T13:49:37;28.10;1.00
38359;DHT22;42072;48.044;14.416;2023-07-20T13:52:14;28.40;1.00
38359;DHT22;42072;48.044;14.416;2023-07-20T13:54:44;28.50;1.00
38359;DHT22;42072;48.044;14.416;2023-07-20T13:57:17;28.80;1.00
38359;DHT22;42072;48.044;14.416;2023-07-20T13:59:44;28.70;1.00
38359;DHT22;42072;48.044;14.416;2023-07-20T14:02:14;28.70;1.00
38359;DHT22;42072;48.044;14.416;2023-07-20T14:04:45;28.90;1.00
38359;DHT22;42072;48.044;14.416;2023-07-20T14:07:12;28.70;1.00
38359;DHT22;42072;48.044;14.416;2023-07-20T14:09:42;28.50;1.00
38359;DHT22;42072;48.044;14.416;2023-07-20T14:12:12;28.30;1.00
38359;DHT22;42072;48.044;14.416;2023-07-20T14:14:44;28.30;1.00
38359;DHT22;42072;48.044;14.416;2023-07-20T14:17:11;28.60;1.00
38359;DHT22;42072;48.044;14.416;2023-07-20T14:19:38;28.70;1.00
38359;DHT22;42072;48.044;14.416;2023-07-20T14:22:05;28.30;1.00
38359;DHT22;42072;48.044;14.416;2023-07-20T14:24:32;28.20;1.00
38359;DHT22;42072;48.044;14.416;2023-07-20T14:27:00;28.60;1.00
38359;DHT22;42072;48.044;14.416;2023-07-20T14:29:28;29.00;1.00
38359;DHT22;42072;48.044;14.416;2023-07-20T14:31:58;29.50;1.00
38359;DHT22;42072;48.044;14.416;2023-07-20T14:34:26;29.50;1.00
38359;DHT22;42072;48.044;14.416;2023-07-20T14:36:53;28.90;1.00
38359;DHT22;42072;48.044;14.416;2023-07-20T14:39:20;28.60;1.00
38359;DHT22;42072;48.044;14.416;2023-07-20T14:41:49;28.10;1.00
38359;DHT22;42072;48.044;14.416;2023-07-20T14:44:16;27.80;1.00
38359;DHT22;42072;48.044;14.416;2023-07-20T14:46:44;27.50;1.00
38359;DHT22;42072;48.044;14.416;2023-07-20T14:49:26;27.90;1.00
38359;DHT22;42072;48.044;14.416;2023-07-20T14:51:53;28.40;1.00
38359;DHT22;42072;48.044;14.416;2023-07-20T14:54:23;28.30;1.00
38359;DHT22;42072;48.044;14.416;2023-07-20T14:56:51;27.90;1.00
38359;DHT22;42072;48.044;14.416;2023-07-20T14:59:20;27.30;1.00
38359;DHT22;42072;48.044;14.416;2023-07-20T15:01:47;27.00;1.00
38359;DHT22;42072;48.044;14.416;2023-07-20T15:04:15;26.90;1.00
38359;DHT22;42072;48.044;14.416;2023-07-20T15:06:42;26.90;1.00
38359;DHT22;42072;48.044;14.416;2023-07-20T15:09:09;27.10;1.00
38359;DHT22;42072;48.044;14.416;2023-07-20T15:11:36;27.70;1.00
38359;DHT22;42072;48.044;14.416;2023-07-20T15:14:04;28.20;1.00
38359;DHT22;42072;48.044;14.416;2023-07-20T15:16:31;28.60;1.00
38359;DHT22;42072;48.044;14.416;2023-07-20T15:18:58;28.80;1.00
38359;DHT22;42072;48.044;14.416;2023-07-20T15:21:25;29.10;1.00
38359;DHT22;42072;48.044;14.416;2023-07-20T15:23:58;29.10;1.00
38359;DHT22;42072;48.044;14.416;2023-07-20T15:26:25;29.00;1.00
38359;DHT22;42072;48.044;14.416;2023-07-20T15:28:52;29.00;1.00
38359;DHT22;42072;48.044;14.416;2023-07-20T15:31:19;28.80;1.00
38359;DHT22;42072;48.044;14.416;2023-07-20T15:34:06;28.60;1.00
38359;DHT22;42072;48.044;14.416;2023-07-20T15:36:33;28.50;1.00
38359;DHT22;42072;48.044;14.416;2023-07-20T15:39:00;28.40;1.00
38359;DHT22;42072;48.044;14.416;2023-07-20T15:41:27;28.50;1.00
38359;DHT22;42072;48.044;14.416;2023-07-20T15:43:56;28.60;1.00